Terminal Aerodrome Forecast
Issued by NWS

Home | Current Version | Previous Version | Text Only | Print | Product List | Glossary On
Versions: 1 2 3 4 5 6 7 8 9 10 11 12 13 14 15 16 17 18 19 20 21 22 23
578
FTUS45 KGGW 191120
TAFOLF
TAF
KOLF 191120Z 1912/2012 25006KT P6SM SCT170
     FM192000 26010KT P6SM FEW150
     FM200000 24006KT P6SM FEW170
     FM200500 25005KT P6SM SCT150 WS020/26035KT
     FM201000 25009KT P6SM BKN120 WS020/27045KT=

USA.gov is the U.S. government's official web portal to all federal, state and local government web resources and services.